sensor_id;sensor_type;location;lat;lon;timestamp;pressure;altitude;pressure_sealevel;temperature;humidity
51496;BME280;37572;52.094;4.870;2023-09-30T00:01:40;102489.13;;;17.42;60.08
51496;BME280;37572;52.094;4.870;2023-09-30T00:04:05;102490.78;;;17.43;59.89
51496;BME280;37572;52.094;4.870;2023-09-30T00:06:32;102492.81;;;17.41;59.89
51496;BME280;37572;52.094;4.870;2023-09-30T00:08:57;102496.66;;;17.38;60.21
51496;BME280;37572;52.094;4.870;2023-09-30T00:11:22;102495.81;;;17.38;60.01
51496;BME280;37572;52.094;4.870;2023-09-30T00:13:48;102501.34;;;17.36;60.03
51496;BME280;37572;52.094;4.870;2023-09-30T00:16:14;102504.06;;;17.36;60.42
51496;BME280;37572;52.094;4.870;2023-09-30T00:18:42;102511.13;;;17.37;60.28
51496;BME280;37572;52.094;4.870;2023-09-30T00:21:07;102511.13;;;17.37;60.44
51496;BME280;37572;52.094;4.870;2023-09-30T00:23:33;102516.38;;;17.39;60.54
51496;BME280;37572;52.094;4.870;2023-09-30T00:25:58;102520.72;;;17.40;60.31
51496;BME280;37572;52.094;4.870;2023-09-30T00:28:25;102521.59;;;17.41;60.54
51496;BME280;37572;52.094;4.870;2023-09-30T00:30:50;102518.75;;;17.42;60.36
51496;BME280;37572;52.094;4.870;2023-09-30T00:33:15;102516.88;;;17.43;60.42
51496;BME280;37572;52.094;4.870;2023-09-30T00:35:41;102512.34;;;17.43;60.76
51496;BME280;37572;52.094;4.870;2023-09-30T00:38:06;102512.19;;;17.45;60.60
51496;BME280;37572;52.094;4.870;2023-09-30T00:40:31;102521.09;;;17.45;60.60
51496;BME280;37572;52.094;4.870;2023-09-30T00:42:58;102525.31;;;17.48;60.84
51496;BME280;37572;52.094;4.870;2023-09-30T00:45:23;102523.47;;;17.48;60.48
51496;BME280;37572;52.094;4.870;2023-09-30T00:47:48;102516.09;;;17.50;60.88
51496;BME280;37572;52.094;4.870;2023-09-30T00:50:14;102512.53;;;17.50;60.63
51496;BME280;37572;52.094;4.870;2023-09-30T00:52:40;102516.25;;;17.49;60.77
51496;BME280;37572;52.094;4.870;2023-09-30T00:55:06;102530.56;;;17.49;60.55
51496;BME280;37572;52.094;4.870;2023-09-30T00:57:33;102533.41;;;17.48;60.63
51496;BME280;37572;52.094;4.870;2023-09-30T00:59:59;102526.16;;;17.48;60.67
51496;BME280;37572;52.094;4.870;2023-09-30T01:02:26;102538.94;;;17.46;60.58
51496;BME280;37572;52.094;4.870;2023-09-30T01:04:52;102543.50;;;17.46;60.61
51496;BME280;37572;52.094;4.870;2023-09-30T01:07:17;102544.50;;;17.45;61.05
51496;BME280;37572;52.094;4.870;2023-09-30T01:09:43;102547.19;;;17.45;60.87
51496;BME280;37572;52.094;4.870;2023-09-30T01:12:08;102547.34;;;17.43;61.19
51496;BME280;37572;52.094;4.870;2023-09-30T01:14:35;102558.97;;;17.44;60.76
51496;BME280;37572;52.094;4.870;2023-09-30T01:17:01;102560.81;;;17.43;61.09
51496;BME280;37572;52.094;4.870;2023-09-30T01:19:26;102552.72;;;17.43;60.81
51496;BME280;37572;52.094;4.870;2023-09-30T01:21:58;102558.09;;;17.43;60.94
51496;BME280;37572;52.094;4.870;2023-09-30T01:24:31;102547.50;;;17.42;60.82
51496;BME280;37572;52.094;4.870;2023-09-30T01:26:57;102552.88;;;17.42;60.89
51496;BME280;37572;52.094;4.870;2023-09-30T01:29:23;102558.44;;;17.40;60.57
51496;BME280;37572;52.094;4.870;2023-09-30T01:31:51;102551.38;;;17.39;60.85
51496;BME280;37572;52.094;4.870;2023-09-30T01:34:16;102551.38;;;17.39;60.96
51496;BME280;37572;52.094;4.870;2023-09-30T01:36:42;102557.59;;;17.39;60.87
51496;BME280;37572;52.094;4.870;2023-09-30T01:39:09;102557.75;;;17.38;60.93
51496;BME280;37572;52.094;4.870;2023-09-30T01:41:39;102546.28;;;17.36;60.72
51496;BME280;37572;52.094;4.870;2023-09-30T01:44:04;102537.38;;;17.35;60.88
51496;BME280;37572;52.094;4.870;2023-09-30T01:46:30;102527.75;;;17.33;60.79
51496;BME280;37572;52.094;4.870;2023-09-30T01:48:55;102521.69;;;17.31;61.09
51496;BME280;37572;52.094;4.870;2023-09-30T01:51:20;102528.22;;;17.28;61.45
51496;BME280;37572;52.094;4.870;2023-09-30T01:53:47;102530.25;;;17.26;61.07
51496;BME280;37572;52.094;4.870;2023-09-30T01:56:13;102535.78;;;17.25;61.49
51496;BME280;37572;52.094;4.870;2023-09-30T01:58:39;102545.03;;;17.22;61.30
51496;BME280;37572;52.094;4.870;2023-09-30T02:01:04;102548.88;;;17.19;61.48
51496;BME280;37572;52.094;4.870;2023-09-30T02:03:29;102549.03;;;17.18;61.85
51496;BME280;37572;52.094;4.870;2023-09-30T02:05:56;102553.75;;;17.16;61.40
51496;BME280;37572;52.094;4.870;2023-09-30T02:08:21;102547.69;;;17.14;61.53
51496;BME280;37572;52.094;4.870;2023-09-30T02:10:47;102550.38;;;17.14;61.94
51496;BME280;37572;52.094;4.870;2023-09-30T02:13:13;102551.19;;;17.14;61.63
51496;BME280;37572;52.094;4.870;2023-09-30T02:15:41;102551.06;;;17.16;61.91
51496;BME280;37572;52.094;4.870;2023-09-30T02:18:06;102547.38;;;17.17;62.24
51496;BME280;37572;52.094;4.870;2023-09-30T02:20:32;102544.34;;;17.20;62.00
51496;BME280;37572;52.094;4.870;2023-09-30T02:22:57;102548.72;;;17.21;62.14
51496;BME280;37572;52.094;4.870;2023-09-30T02:25:24;102545.88;;;17.23;62.16
51496;BME280;37572;52.094;4.870;2023-09-30T02:27:49;102540.34;;;17.24;62.04
51496;BME280;37572;52.094;4.870;2023-09-30T02:30:15;102534.66;;;17.27;61.92
51496;BME280;37572;52.094;4.870;2023-09-30T02:32:42;102543.25;;;17.31;62.17
51496;BME280;37572;52.094;4.870;2023-09-30T02:35:08;102533.00;;;17.34;62.22
51496;BME280;37572;52.094;4.870;2023-09-30T02:37:36;102534.53;;;17.37;62.11
51496;BME280;37572;52.094;4.870;2023-09-30T02:40:03;102538.91;;;17.38;62.08
51496;BME280;37572;52.094;4.870;2023-09-30T02:42:30;102528.97;;;17.38;61.93
51496;BME280;37572;52.094;4.870;2023-09-30T02:44:55;102528.13;;;17.38;61.80
51496;BME280;37572;52.094;4.870;2023-09-30T02:47:20;102541.44;;;17.39;62.21
51496;BME280;37572;52.094;4.870;2023-09-30T02:49:46;102536.06;;;17.39;61.88
51496;BME280;37572;52.094;4.870;2023-09-30T02:52:11;102543.97;;;17.41;61.92
51496;BME280;37572;52.094;4.870;2023-09-30T02:54:38;102542.09;;;17.42;62.05
51496;BME280;37572;52.094;4.870;2023-09-30T02:57:03;102529.66;;;17.41;62.31
51496;BME280;37572;52.094;4.870;2023-09-30T02:59:29;102535.22;;;17.39;62.48
51496;BME280;37572;52.094;4.870;2023-09-30T03:01:55;102531.50;;;17.40;62.41
51496;BME280;37572;52.094;4.870;2023-09-30T03:04:21;102523.09;;;17.43;62.21
51496;BME280;37572;52.094;4.870;2023-09-30T03:06:51;102525.63;;;17.45;62.24
51496;BME280;37572;52.094;4.870;2023-09-30T03:09:16;102530.03;;;17.46;62.53
51496;BME280;37572;52.094;4.870;2023-09-30T03:11:41;102536.25;;;17.46;62.47
51496;BME280;37572;52.094;4.870;2023-09-30T03:14:11;102532.72;;;17.46;62.22
51496;BME280;37572;52.094;4.870;2023-09-30T03:16:39;102521.94;;;17.46;62.53
51496;BME280;37572;52.094;4.870;2023-09-30T03:19:06;102514.88;;;17.45;62.63
51496;BME280;37572;52.094;4.870;2023-09-30T03:21:34;102516.56;;;17.46;62.47
51496;BME280;37572;52.094;4.870;2023-09-30T03:24:03;102524.50;;;17.47;62.52
51496;BME280;37572;52.094;4.870;2023-09-30T03:26:29;102526.88;;;17.50;62.82
51496;BME280;37572;52.094;4.870;2023-09-30T03:28:55;102525.84;;;17.51;62.48
51496;BME280;37572;52.094;4.870;2023-09-30T03:31:21;102526.50;;;17.53;62.69
51496;BME280;37572;52.094;4.870;2023-09-30T03:33:49;102522.84;;;17.54;62.53
51496;BME280;37572;52.094;4.870;2023-09-30T03:36:16;102533.59;;;17.54;62.25
51496;BME280;37572;52.094;4.870;2023-09-30T03:38:42;102526.34;;;17.55;62.34
51496;BME280;37572;52.094;4.870;2023-09-30T03:41:07;102530.75;;;17.56;62.42
51496;BME280;37572;52.094;4.870;2023-09-30T03:43:34;102531.44;;;17.58;62.34
51496;BME280;37572;52.094;4.870;2023-09-30T03:46:02;102528.56;;;17.60;62.62
51496;BME280;37572;52.094;4.870;2023-09-30T03:48:27;102519.66;;;17.59;62.37
51496;BME280;37572;52.094;4.870;2023-09-30T03:50:52;102525.88;;;17.60;62.36
51496;BME280;37572;52.094;4.870;2023-09-30T03:53:18;102527.91;;;17.57;62.33
51496;BME280;37572;52.094;4.870;2023-09-30T03:55:44;102527.06;;;17.57;62.51
51496;BME280;37572;52.094;4.870;2023-09-30T03:58:10;102533.59;;;17.54;62.53
51496;BME280;37572;52.094;4.870;2023-09-30T04:00:37;102529.91;;;17.55;62.66
51496;BME280;37572;52.094;4.870;2023-09-30T04:03:03;102522.84;;;17.54;62.52
51496;BME280;37572;52.094;4.870;2023-09-30T04:05:28;102526.34;;;17.55;62.49
51496;BME280;37572;52.094;4.870;2023-09-30T04:07:57;102529.06;;;17.55;62.61
51496;BME280;37572;52.094;4.870;2023-09-30T04:10:23;102534.28;;;17.56;62.99
51496;BME280;37572;52.094;4.870;2023-09-30T04:12:49;102532.44;;;17.57;62.71
51496;BME280;37572;52.094;4.870;2023-09-30T04:15:14;102520.66;;;17.58;62.79
51496;BME280;37572;52.094;4.870;2023-09-30T04:17:41;102522.50;;;17.57;62.91
51496;BME280;37572;52.094;4.870;2023-09-30T04:20:07;102527.06;;;17.57;62.90
51496;BME280;37572;52.094;4.870;2023-09-30T04:22:41;102532.44;;;17.57;62.91
51496;BME280;37572;52.094;4.870;2023-09-30T04:25:07;102529.75;;;17.57;62.50
51496;BME280;37572;52.094;4.870;2023-09-30T04:27:36;102538.84;;;17.56;62.57
51496;BME280;37572;52.094;4.870;2023-09-30T04:30:02;102539.97;;;17.53;62.76
51496;BME280;37572;52.094;4.870;2023-09-30T04:32:33;102539.81;;;17.55;62.66
51496;BME280;37572;52.094;4.870;2023-09-30T04:34:59;102535.78;;;17.51;62.94
51496;BME280;37572;52.094;4.870;2023-09-30T04:37:25;102545.72;;;17.50;63.02
51496;BME280;37572;52.094;4.870;2023-09-30T04:39:50;102547.38;;;17.51;62.75
51496;BME280;37572;52.094;4.870;2023-09-30T04:42:15;102550.91;;;17.52;62.75
51496;BME280;37572;52.094;4.870;2023-09-30T04:44:42;102555.16;;;17.54;62.67
51496;BME280;37572;52.094;4.870;2023-09-30T04:47:08;102555.97;;;17.55;62.68
51496;BME280;37572;52.094;4.870;2023-09-30T04:49:34;102557.00;;;17.54;62.96
51496;BME280;37572;52.094;4.870;2023-09-30T04:52:00;102563.22;;;17.54;63.07
51496;BME280;37572;52.094;4.870;2023-09-30T04:54:25;102564.56;;;17.50;63.27
51496;BME280;37572;52.094;4.870;2023-09-30T04:56:50;102556.66;;;17.49;63.28
51496;BME280;37572;52.094;4.870;2023-09-30T04:59:16;102556.28;;;17.44;62.93
51496;BME280;37572;52.094;4.870;2023-09-30T05:01:42;102559.97;;;17.43;63.20
51496;BME280;37572;52.094;4.870;2023-09-30T05:04:07;102560.97;;;17.42;63.50
51496;BME280;37572;52.094;4.870;2023-09-30T05:06:32;102563.34;;;17.45;63.42
51496;BME280;37572;52.094;4.870;2023-09-30T05:08:58;102554.59;;;17.43;63.09
51496;BME280;37572;52.094;4.870;2023-09-30T05:11:24;102556.44;;;17.42;63.05
51496;BME280;37572;52.094;4.870;2023-09-30T05:13:49;102554.59;;;17.43;63.08
51496;BME280;37572;52.094;4.870;2023-09-30T05:16:14;102556.28;;;17.44;62.90
51496;BME280;37572;52.094;4.870;2023-09-30T05:18:41;102559.81;;;17.44;63.19
51496;BME280;37572;52.094;4.870;2023-09-30T05:21:06;102558.09;;;17.43;63.06
51496;BME280;37572;52.094;4.870;2023-09-30T05:23:31;102551.06;;;17.42;63.34
51496;BME280;37572;52.094;4.870;2023-09-30T05:25:57;102556.75;;;17.39;63.16
51496;BME280;37572;52.094;4.870;2023-09-30T05:28:23;102560.28;;;17.39;62.99
51496;BME280;37572;52.094;4.870;2023-09-30T05:30:48;102560.28;;;17.39;62.96
51496;BME280;37572;52.094;4.870;2023-09-30T05:33:15;102560.44;;;17.38;63.01
51496;BME280;37572;52.094;4.870;2023-09-30T05:35:42;102563.28;;;17.36;63.20
51496;BME280;37572;52.094;4.870;2023-09-30T05:38:08;102561.63;;;17.35;62.77
51496;BME280;37572;52.094;4.870;2023-09-30T05:40:33;102560.91;;;17.33;62.99
51496;BME280;37572;52.094;4.870;2023-09-30T05:42:59;102561.25;;;17.30;62.64
51496;BME280;37572;52.094;4.870;2023-09-30T05:45:26;102551.09;;;17.24;63.04
51496;BME280;37572;52.094;4.870;2023-09-30T05:47:52;102558.66;;;17.20;63.42
51496;BME280;37572;52.094;4.870;2023-09-30T05:50:19;102562.50;;;17.18;63.08
51496;BME280;37572;52.094;4.870;2023-09-30T05:52:49;102568.56;;;17.20;62.94
51496;BME280;37572;52.094;4.870;2023-09-30T05:55:16;102564.03;;;17.20;62.96
51496;BME280;37572;52.094;4.870;2023-09-30T05:57:45;102566.59;;;17.22;62.98
51496;BME280;37572;52.094;4.870;2023-09-30T06:00:12;102569.28;;;17.22;63.47
51496;BME280;37572;52.094;4.870;2023-09-30T06:02:53;102577.34;;;17.22;63.24
51496;BME280;37572;52.094;4.870;2023-09-30T06:05:18;102572.94;;;17.21;63.11
51496;BME280;37572;52.094;4.870;2023-09-30T06:07:46;102566.59;;;17.22;63.43
51496;BME280;37572;52.094;4.870;2023-09-30T06:10:12;102563.72;;;17.24;63.24
51496;BME280;37572;52.094;4.870;2023-09-30T06:12:38;102565.25;;;17.26;63.23
51496;BME280;37572;52.094;4.870;2023-09-30T06:15:04;102572.03;;;17.30;63.33
51496;BME280;37572;52.094;4.870;2023-09-30T06:17:29;102569.84;;;17.34;63.53
51496;BME280;37572;52.094;4.870;2023-09-30T06:19:54;102576.06;;;17.34;63.28
51496;BME280;37572;52.094;4.870;2023-09-30T06:22:20;102567.84;;;17.36;63.22
51496;BME280;37572;52.094;4.870;2023-09-30T06:24:46;102573.06;;;17.37;63.08
51496;BME280;37572;52.094;4.870;2023-09-30T06:27:13;102576.59;;;17.38;63.17
51496;BME280;37572;52.094;4.870;2023-09-30T06:29:38;102590.75;;;17.40;63.54
51496;BME280;37572;52.094;4.870;2023-09-30T06:32:07;102602.06;;;17.44;63.45
51496;BME280;37572;52.094;4.870;2023-09-30T06:34:33;102602.59;;;17.47;63.53
51496;BME280;37572;52.094;4.870;2023-09-30T06:36:59;102607.81;;;17.49;63.47
51496;BME280;37572;52.094;4.870;2023-09-30T06:39:25;102611.88;;;17.53;63.32
51496;BME280;37572;52.094;4.870;2023-09-30T06:41:50;102616.25;;;17.54;63.05
51496;BME280;37572;52.094;4.870;2023-09-30T06:44:16;102608.19;;;17.54;63.18
51496;BME280;37572;52.094;4.870;2023-09-30T06:46:41;102604.47;;;17.55;63.26
51496;BME280;37572;52.094;4.870;2023-09-30T06:49:07;102605.75;;;17.69;63.39
51496;BME280;37572;52.094;4.870;2023-09-30T06:51:32;102612.28;;;17.92;63.05
51496;BME280;37572;52.094;4.870;2023-09-30T06:53:57;102615.56;;;18.12;63.22
51496;BME280;37572;52.094;4.870;2023-09-30T06:56:23;102616.97;;;18.33;62.46
51496;BME280;37572;52.094;4.870;2023-09-30T06:58:48;102622.44;;;18.49;62.47
51496;BME280;37572;52.094;4.870;2023-09-30T07:01:16;102629.97;;;18.89;62.84
51496;BME280;37572;52.094;4.870;2023-09-30T07:03:42;102627.06;;;19.39;61.54
51496;BME280;37572;52.094;4.870;2023-09-30T07:06:08;102628.16;;;19.86;60.94
51496;BME280;37572;52.094;4.870;2023-09-30T07:08:33;102629.09;;;20.10;60.12
51496;BME280;37572;52.094;4.870;2023-09-30T07:10:58;102628.78;;;20.36;59.11
51496;BME280;37572;52.094;4.870;2023-09-30T07:13:25;102638.53;;;20.54;58.38
51496;BME280;37572;52.094;4.870;2023-09-30T07:15:50;102643.28;;;20.43;58.60
51496;BME280;37572;52.094;4.870;2023-09-30T07:18:16;102647.28;;;20.24;58.73
51496;BME280;37572;52.094;4.870;2023-09-30T07:20:41;102636.19;;;20.11;58.85
51496;BME280;37572;52.094;4.870;2023-09-30T07:23:06;102642.16;;;19.90;58.61
51496;BME280;37572;52.094;4.870;2023-09-30T07:25:34;102648.47;;;19.66;59.16
51496;BME280;37572;52.094;4.870;2023-09-30T07:28:00;102653.41;;;19.46;59.09
51496;BME280;37572;52.094;4.870;2023-09-30T07:30:27;102668.78;;;19.29;59.56
51496;BME280;37572;52.094;4.870;2023-09-30T07:32:53;102667.75;;;19.21;59.79
51496;BME280;37572;52.094;4.870;2023-09-30T07:35:18;102667.25;;;19.18;59.92
51496;BME280;37572;52.094;4.870;2023-09-30T07:37:44;102668.44;;;19.15;60.24
51496;BME280;37572;52.094;4.870;2023-09-30T07:40:10;102675.16;;;19.11;60.31
51496;BME280;37572;52.094;4.870;2023-09-30T07:42:36;102674.16;;;19.12;60.69
51496;BME280;37572;52.094;4.870;2023-09-30T07:45:02;102674.34;;;19.19;60.72
51496;BME280;37572;52.094;4.870;2023-09-30T07:47:29;102670.44;;;19.30;60.91
51496;BME280;37572;52.094;4.870;2023-09-30T07:49:56;102663.69;;;19.50;61.04
51496;BME280;37572;52.094;4.870;2023-09-30T07:52:21;102662.16;;;19.64;60.75
51496;BME280;37572;52.094;4.870;2023-09-30T07:54:46;102648.31;;;19.75;60.52
51496;BME280;37572;52.094;4.870;2023-09-30T07:57:12;102657.25;;;19.84;60.52
51496;BME280;37572;52.094;4.870;2023-09-30T07:59:37;102649.78;;;19.86;60.28
51496;BME280;37572;52.094;4.870;2023-09-30T08:02:03;102650.28;;;19.90;60.22
51496;BME280;37572;52.094;4.870;2023-09-30T08:04:30;102649.09;;;19.92;60.13
51496;BME280;37572;52.094;4.870;2023-09-30T08:06:56;102645.41;;;19.93;60.11
51496;BME280;37572;52.094;4.870;2023-09-30T08:09:21;102637.47;;;19.92;60.09
51496;BME280;37572;52.094;4.870;2023-09-30T08:11:49;102635.25;;;19.95;59.95
51496;BME280;37572;52.094;4.870;2023-09-30T08:14:15;102626.06;;;20.05;60.04
51496;BME280;37572;52.094;4.870;2023-09-30T08:16:40;102617.56;;;20.16;60.15
51496;BME280;37572;52.094;4.870;2023-09-30T08:19:05;102620.72;;;20.28;59.98
51496;BME280;37572;52.094;4.870;2023-09-30T08:21:31;102628.28;;;20.41;59.84
51496;BME280;37572;52.094;4.870;2023-09-30T08:23:57;102633.28;;;20.52;59.73
51496;BME280;37572;52.094;4.870;2023-09-30T08:26:22;102643.34;;;20.66;59.42
51496;BME280;37572;52.094;4.870;2023-09-30T08:28:48;102643.59;;;20.80;58.77
51496;BME280;37572;52.094;4.870;2023-09-30T08:31:13;102644.75;;;20.85;58.60
51496;BME280;37572;52.094;4.870;2023-09-30T08:33:39;102640.31;;;20.93;58.03
51496;BME280;37572;52.094;4.870;2023-09-30T08:36:06;102642.28;;;20.99;58.17
51496;BME280;37572;52.094;4.870;2023-09-30T08:38:39;102642.78;;;21.02;58.12
51496;BME280;37572;52.094;4.870;2023-09-30T08:41:06;102647.28;;;21.10;57.86
51496;BME280;37572;52.094;4.870;2023-09-30T08:43:37;102645.34;;;21.19;58.08
51496;BME280;37572;52.094;4.870;2023-09-30T08:46:03;102650.50;;;21.29;58.27
51496;BME280;37572;52.094;4.870;2023-09-30T08:48:31;102653.97;;;21.37;57.93
51496;BME280;37572;52.094;4.870;2023-09-30T08:50:58;102650.53;;;21.43;57.23
51496;BME280;37572;52.094;4.870;2023-09-30T08:53:24;102652.16;;;21.53;57.60
51496;BME280;37572;52.094;4.870;2023-09-30T08:55:53;102667.63;;;21.67;57.66
51496;BME280;37572;52.094;4.870;2023-09-30T08:58:23;102675.13;;;21.80;57.00
51496;BME280;37572;52.094;4.870;2023-09-30T09:00:50;102684.81;;;21.89;56.75
51496;BME280;37572;52.094;4.870;2023-09-30T09:03:17;102685.56;;;21.98;56.81
51496;BME280;37572;52.094;4.870;2023-09-30T09:05:43;102681.75;;;22.07;56.25
51496;BME280;37572;52.094;4.870;2023-09-30T09:08:08;102686.88;;;22.17;56.43
51496;BME280;37572;52.094;4.870;2023-09-30T09:10:34;102694.75;;;22.27;56.30
51496;BME280;37572;52.094;4.870;2023-09-30T09:13:00;102702.22;;;22.40;55.56
51496;BME280;37572;52.094;4.870;2023-09-30T09:15:27;102701.47;;;22.46;55.84
51496;BME280;37572;52.094;4.870;2023-09-30T09:17:56;102710.16;;;22.56;55.72
51496;BME280;37572;52.094;4.870;2023-09-30T09:20:22;102718.25;;;22.71;56.11
51496;BME280;37572;52.094;4.870;2023-09-30T09:22:49;102719.03;;;22.86;55.44
51496;BME280;37572;52.094;4.870;2023-09-30T09:25:20;102720.88;;;23.01;55.33
51496;BME280;37572;52.094;4.870;2023-09-30T09:27:48;102726.03;;;23.11;54.63
51496;BME280;37572;52.094;4.870;2023-09-30T09:30:18;102720.66;;;23.17;54.44
51496;BME280;37572;52.094;4.870;2023-09-30T09:33:01;102712.50;;;23.17;54.38
51496;BME280;37572;52.094;4.870;2023-09-30T09:35:27;102726.09;;;23.17;54.33
51496;BME280;37572;52.094;4.870;2023-09-30T09:38:04;102716.44;;;23.15;53.89
51496;BME280;37572;52.094;4.870;2023-09-30T09:40:33;102724.34;;;23.09;53.13
51496;BME280;37572;52.094;4.870;2023-09-30T09:42:59;102726.31;;;23.01;53.07
51496;BME280;37572;52.094;4.870;2023-09-30T09:45:28;102726.81;;;22.89;53.34
51496;BME280;37572;52.094;4.870;2023-09-30T09:47:55;102731.97;;;22.84;53.41
51496;BME280;37572;52.094;4.870;2023-09-30T09:50:22;102725.91;;;22.82;53.01
51496;BME280;37572;52.094;4.870;2023-09-30T09:52:49;102722.81;;;22.85;52.62
51496;BME280;37572;52.094;4.870;2023-09-30T09:55:19;102716.41;;;22.93;52.74
51496;BME280;37572;52.094;4.870;2023-09-30T09:57:48;102727.63;;;23.05;53.11
51496;BME280;37572;52.094;4.870;2023-09-30T10:00:25;102729.63;;;23.18;52.25
51496;BME280;37572;52.094;4.870;2023-09-30T10:02:51;102724.94;;;23.26;52.28
51496;BME280;37572;52.094;4.870;2023-09-30T10:05:18;102724.59;;;23.36;52.38
51496;BME280;37572;52.094;4.870;2023-09-30T10:08:04;102721.97;;;23.50;52.33
51496;BME280;37572;52.094;4.870;2023-09-30T10:10:35;102708.03;;;23.59;52.03
51496;BME280;37572;52.094;4.870;2023-09-30T10:13:01;102697.94;;;23.75;51.69
51496;BME280;37572;52.094;4.870;2023-09-30T10:18:05;102695.22;;;24.10;50.21
51496;BME280;37572;52.094;4.870;2023-09-30T10:20:36;102686.31;;;24.29;49.72
51496;BME280;37572;52.094;4.870;2023-09-30T10:25:43;102686.78;;;24.46;49.52
51496;BME280;37572;52.094;4.870;2023-09-30T10:28:39;102682.28;;;24.60;49.84
51496;BME280;37572;52.094;4.870;2023-09-30T10:31:19;102682.94;;;24.82;49.21
51496;BME280;37572;52.094;4.870;2023-09-30T10:36:33;102682.78;;;25.10;47.26
51496;BME280;37572;52.094;4.870;2023-09-30T10:38:59;102683.81;;;25.16;47.47
51496;BME280;37572;52.094;4.870;2023-09-30T10:46:53;102680.06;;;25.17;45.94
51496;BME280;37572;52.094;4.870;2023-09-30T10:51:51;102682.41;;;25.27;46.18
51496;BME280;37572;52.094;4.870;2023-09-30T10:54:22;102685.75;;;25.29;46.10
51496;BME280;37572;52.094;4.870;2023-09-30T10:56:51;102678.19;;;25.31;45.68
51496;BME280;37572;52.094;4.870;2023-09-30T10:59:23;102688.06;;;25.32;45.33
51496;BME280;37572;52.094;4.870;2023-09-30T11:01:49;102681.13;;;25.36;45.82
51496;BME280;37572;52.094;4.870;2023-09-30T11:04:15;102679.03;;;25.38;45.12
51496;BME280;37572;52.094;4.870;2023-09-30T11:06:42;102673.38;;;25.40;45.75
51496;BME280;37572;52.094;4.870;2023-09-30T11:09:08;102672.53;;;25.39;45.78
51496;BME280;37572;52.094;4.870;2023-09-30T11:11:45;102677.16;;;25.32;45.78
51496;BME280;37572;52.094;4.870;2023-09-30T11:14:30;102676.09;;;25.20;45.44
51496;BME280;37572;52.094;4.870;2023-09-30T11:17:00;102679.22;;;25.03;45.38
51496;BME280;37572;52.094;4.870;2023-09-30T11:19:55;102657.59;;;24.82;45.74
51496;BME280;37572;52.094;4.870;2023-09-30T11:22:20;102653.38;;;24.66;45.62
51496;BME280;37572;52.094;4.870;2023-09-30T11:24:46;102651.63;;;24.51;45.83
51496;BME280;37572;52.094;4.870;2023-09-30T11:27:12;102645.31;;;24.37;46.22
51496;BME280;37572;52.094;4.870;2023-09-30T11:29:37;102656.56;;;24.28;46.66
51496;BME280;37572;52.094;4.870;2023-09-30T11:32:23;102666.56;;;24.14;46.28
51496;BME280;37572;52.094;4.870;2023-09-30T11:34:48;102664.41;;;24.02;46.38
51496;BME280;37572;52.094;4.870;2023-09-30T11:37:14;102673.13;;;23.91;47.02
51496;BME280;37572;52.094;4.870;2023-09-30T11:39:40;102679.59;;;23.83;47.00
51496;BME280;37572;52.094;4.870;2023-09-30T11:42:15;102679.53;;;23.77;47.05
51496;BME280;37572;52.094;4.870;2023-09-30T11:44:46;102674.69;;;23.72;47.00
51496;BME280;37572;52.094;4.870;2023-09-30T11:47:15;102679.03;;;23.67;46.56
51496;BME280;37572;52.094;4.870;2023-09-30T11:49:42;102674.63;;;23.65;46.76
51496;BME280;37572;52.094;4.870;2023-09-30T11:52:13;102681.75;;;23.67;46.81
51496;BME280;37572;52.094;4.870;2023-09-30T11:54:44;102675.75;;;23.78;46.98
51496;BME280;37572;52.094;4.870;2023-09-30T11:57:11;102669.81;;;23.96;46.31
51496;BME280;37572;52.094;4.870;2023-09-30T11:59:38;102663.03;;;24.13;45.87
51496;BME280;37572;52.094;4.870;2023-09-30T12:02:07;102653.66;;;24.36;45.41
51496;BME280;37572;52.094;4.870;2023-09-30T12:04:34;102637.59;;;24.54;44.55
51496;BME280;37572;52.094;4.870;2023-09-30T12:07:00;102638.53;;;24.75;44.29
51496;BME280;37572;52.094;4.870;2023-09-30T12:09:25;102636.66;;;25.02;44.04
51496;BME280;37572;52.094;4.870;2023-09-30T12:11:53;102630.19;;;25.37;43.47
51496;BME280;37572;52.094;4.870;2023-09-30T12:14:19;102634.06;;;25.81;43.36
51496;BME280;37572;52.094;4.870;2023-09-30T12:16:45;102629.72;;;26.25;42.28
51496;BME280;37572;52.094;4.870;2023-09-30T12:19:16;102631.66;;;26.63;41.66
51496;BME280;37572;52.094;4.870;2023-09-30T12:21:42;102630.38;;;26.91;41.56
51496;BME280;37572;52.094;4.870;2023-09-30T12:24:08;102633.38;;;27.08;40.44
51496;BME280;37572;52.094;4.870;2023-09-30T12:26:35;102634.78;;;27.17;40.11
51496;BME280;37572;52.094;4.870;2023-09-30T12:29:01;102646.34;;;27.19;39.60
51496;BME280;37572;52.094;4.870;2023-09-30T12:31:27;102635.41;;;27.19;39.26
51496;BME280;37572;52.094;4.870;2023-09-30T12:33:52;102635.44;;;27.12;38.57
51496;BME280;37572;52.094;4.870;2023-09-30T12:36:18;102630.66;;;27.08;38.83
51496;BME280;37572;52.094;4.870;2023-09-30T12:38:44;102634.13;;;26.97;38.32
51496;BME280;37572;52.094;4.870;2023-09-30T12:41:10;102634.66;;;26.80;38.10
51496;BME280;37572;52.094;4.870;2023-09-30T12:43:35;102635.38;;;26.69;38.74
51496;BME280;37572;52.094;4.870;2023-09-30T12:46:01;102625.91;;;26.71;38.68
51496;BME280;37572;52.094;4.870;2023-09-30T12:48:26;102633.84;;;26.80;38.22
51496;BME280;37572;52.094;4.870;2023-09-30T12:50:51;102627.91;;;26.83;38.00
51496;BME280;37572;52.094;4.870;2023-09-30T12:53:16;102639.00;;;26.88;38.35
51496;BME280;37572;52.094;4.870;2023-09-30T12:55:42;102633.84;;;27.05;38.25
51496;BME280;37572;52.094;4.870;2023-09-30T12:58:08;102642.16;;;27.17;37.17
51496;BME280;37572;52.094;4.870;2023-09-30T13:00:34;102637.69;;;27.22;36.75
51496;BME280;37572;52.094;4.870;2023-09-30T13:03:01;102617.72;;;27.22;36.33
51496;BME280;37572;52.094;4.870;2023-09-30T13:05:26;102621.19;;;27.10;35.42